Time;durP1;ratioP1;P1;durP2;ratioP2;P2;SDS_P1;SDS_P2;PMS_P1;PMS_P2;Temp;Humidity;BMP_temperature;BMP_pressure;BME280_temperature;BME280_humidity;BME280_pressure;Samples;Min_cycle;Max_cycle;Signal;HPM_P1;HPM_P2
2023/06/21 00:00:22;;;;;;;18.10;11.03;;;;;;;;;;5028036;28;20274;-81
2023/06/21 00:02:48;;;;;;;15.13;11.27;;;;;;;;;;5011289;28;20259;-81
2023/06/21 00:05:16;;;;;;;14.18;10.80;;;;;;;;;;5009434;28;20030;-79
2023/06/21 00:07:42;;;;;;;14.05;11.32;;;;;;;;;;5027705;28;20040;-79
2023/06/21 00:10:07;;;;;;;13.75;10.85;;;;;;;;;;5027441;28;20407;-80
2023/06/21 00:12:33;;;;;;;20.27;11.70;;;;;;;;;;5009657;28;20026;-77
2023/06/21 00:14:59;;;;;;;14.90;11.27;;;;;;;;;;5009801;28;20080;-78
2023/06/21 00:17:24;;;;;;;14.90;11.55;;;;;;;;;;5027053;28;20018;-80
2023/06/21 00:19:49;;;;;;;13.38;11.57;;;;;;;;;;5028216;28;20377;-79
2023/06/21 00:22:21;;;;;;;15.57;11.50;;;;;;;;;;5009429;28;20030;-79
2023/06/21 00:24:46;;;;;;;16.33;11.88;;;;;;;;;;5009560;28;20076;-78
2023/06/21 00:27:12;;;;;;;14.15;11.55;;;;;;;;;;5027058;28;20041;-79
2023/06/21 00:29:37;;;;;;;13.37;10.93;;;;;;;;;;5025089;28;20025;-78
2023/06/21 00:32:02;;;;;;;15.47;11.23;;;;;;;;;;5026810;28;20274;-79
2023/06/21 00:34:27;;;;;;;17.30;11.27;;;;;;;;;;5027332;28;20255;-81
2023/06/21 00:36:53;;;;;;;12.98;11.60;;;;;;;;;;5024996;28;20036;-80
2023/06/21 00:39:18;;;;;;;18.23;11.47;;;;;;;;;;5007124;28;20026;-81
2023/06/21 00:41:43;;;;;;;14.30;11.07;;;;;;;;;;5025347;28;20342;-80
2023/06/21 00:44:09;;;;;;;13.25;11.13;;;;;;;;;;5024814;28;20030;-81
2023/06/21 00:46:34;;;;;;;17.08;11.65;;;;;;;;;;5024916;28;20072;-80
2023/06/21 00:49:00;;;;;;;14.25;11.07;;;;;;;;;;5025286;28;20025;-80
2023/06/21 00:51:25;;;;;;;13.52;11.60;;;;;;;;;;5025014;28;20401;-80
2023/06/21 00:53:50;;;;;;;15.48;11.73;;;;;;;;;;5024603;28;20037;-80
2023/06/21 00:56:19;;;;;;;14.07;11.45;;;;;;;;;;5023288;28;20100;-79
2023/06/21 00:58:44;;;;;;;14.52;10.95;;;;;;;;;;5005886;28;20033;-81
2023/06/21 01:01:09;;;;;;;15.50;11.57;;;;;;;;;;5021621;28;20029;-79
2023/06/21 01:03:36;;;;;;;14.00;12.02;;;;;;;;;;5021270;28;20022;-78
2023/06/21 01:06:32;;;;;;;14.57;11.55;;;;;;;;;;5021884;28;20076;-78
2023/06/21 01:09:32;;;;;;;15.23;11.57;;;;;;;;;;5023589;28;20060;-79
2023/06/21 01:12:27;;;;;;;15.32;11.25;;;;;;;;;;5023757;28;20069;-79
2023/06/21 01:15:03;;;;;;;15.50;11.85;;;;;;;;;;5006091;28;20029;-77
2023/06/21 01:17:34;;;;;;;17.85;11.93;;;;;;;;;;5005051;28;20026;-78
2023/06/21 01:20:01;;;;;;;17.20;12.13;;;;;;;;;;5023033;28;20037;-79
2023/06/21 01:22:51;;;;;;;14.73;11.38;;;;;;;;;;5022815;28;20036;-78
2023/06/21 01:26:07;;;;;;;19.42;12.63;;;;;;;;;;5024446;28;20033;-76
2023/06/21 01:28:45;;;;;;;13.38;11.55;;;;;;;;;;5023603;28;20082;-78
2023/06/21 01:31:15;;;;;;;13.77;12.00;;;;;;;;;;5006866;28;20060;-79
2023/06/21 01:33:41;;;;;;;15.57;11.10;;;;;;;;;;5023967;28;20018;-78
2023/06/21 01:36:10;;;;;;;13.85;11.98;;;;;;;;;;5024377;28;20029;-79
2023/06/21 01:38:36;;;;;;;14.25;11.68;;;;;;;;;;5025013;28;20493;-79
2023/06/21 01:41:02;;;;;;;17.77;11.57;;;;;;;;;;5006921;28;20056;-79
2023/06/21 01:43:30;;;;;;;13.10;11.70;;;;;;;;;;5023999;28;20026;-78
2023/06/21 01:45:56;;;;;;;12.52;11.20;;;;;;;;;;5005890;28;20327;-78
2023/06/21 01:48:22;;;;;;;15.50;11.52;;;;;;;;;;5022632;28;20500;-79
2023/06/21 01:50:50;;;;;;;14.55;11.00;;;;;;;;;;5023211;28;20026;-76
2023/06/21 01:53:16;;;;;;;13.30;9.93;;;;;;;;;;5022559;28;20021;-79
2023/06/21 01:55:48;;;;;;;11.50;9.50;;;;;;;;;;5006679;28;20461;-78
2023/06/21 01:58:13;;;;;;;17.45;12.02;;;;;;;;;;5005385;28;20033;-79
2023/06/21 02:00:38;;;;;;;12.40;8.68;;;;;;;;;;5023333;28;20086;-78
2023/06/21 02:03:08;;;;;;;10.80;8.90;;;;;;;;;;5022856;28;20112;-79
2023/06/21 02:05:34;;;;;;;14.27;9.73;;;;;;;;;;5004961;28;20306;-78
2023/06/21 02:08:00;;;;;;;9.77;8.02;;;;;;;;;;5023736;28;20025;-77
2023/06/21 02:10:26;;;;;;;9.85;7.63;;;;;;;;;;5023581;28;20029;-78
2023/06/21 02:12:54;;;;;;;10.75;7.47;;;;;;;;;;5023130;28;20040;-79
2023/06/21 02:15:19;;;;;;;13.18;7.78;;;;;;;;;;5022609;28;20026;-79
2023/06/21 02:17:48;;;;;;;8.80;7.47;;;;;;;;;;5023398;28;20026;-77
2023/06/21 02:20:13;;;;;;;12.35;7.60;;;;;;;;;;5022969;28;20557;-78
2023/06/21 02:22:40;;;;;;;13.73;6.97;;;;;;;;;;5005407;28;20061;-78
2023/06/21 02:25:05;;;;;;;10.52;6.95;;;;;;;;;;5005265;28;20109;-77
2023/06/21 02:27:31;;;;;;;11.35;7.25;;;;;;;;;;5005559;28;20050;-79
2023/06/21 02:29:56;;;;;;;12.33;7.60;;;;;;;;;;5005228;28;20026;-78
2023/06/21 02:32:21;;;;;;;10.93;6.55;;;;;;;;;;5005255;28;20273;-79
2023/06/21 02:34:47;;;;;;;9.63;6.60;;;;;;;;;;5005930;28;20116;-80
2023/06/21 02:37:12;;;;;;;10.60;6.63;;;;;;;;;;5023157;28;20255;-79
2023/06/21 02:39:38;;;;;;;10.57;7.07;;;;;;;;;;5023907;28;20278;-78
2023/06/21 02:42:04;;;;;;;10.13;7.03;;;;;;;;;;5023556;28;20725;-80
2023/06/21 02:44:29;;;;;;;11.52;6.90;;;;;;;;;;5024583;28;20037;-79
2023/06/21 02:46:56;;;;;;;11.50;7.18;;;;;;;;;;5024275;28;20029;-79
2023/06/21 02:49:22;;;;;;;12.40;7.10;;;;;;;;;;5024728;28;20030;-80
2023/06/21 02:51:50;;;;;;;8.93;6.97;;;;;;;;;;5025029;28;20029;-79
2023/06/21 02:54:16;;;;;;;12.00;7.47;;;;;;;;;;5024657;28;20034;-79
2023/06/21 02:56:42;;;;;;;12.50;7.28;;;;;;;;;;5005579;28;20052;-78
2023/06/21 02:59:08;;;;;;;11.02;7.85;;;;;;;;;;5004028;28;20030;-78
2023/06/21 03:01:33;;;;;;;11.00;6.25;;;;;;;;;;5021693;28;20477;-79
2023/06/21 03:03:59;;;;;;;14.23;7.23;;;;;;;;;;5006013;28;20026;-77
2023/06/21 03:06:24;;;;;;;10.05;7.47;;;;;;;;;;5006362;28;20251;-78
2023/06/21 03:08:51;;;;;;;16.67;6.63;;;;;;;;;;5027308;28;20052;-77
2023/06/21 03:11:16;;;;;;;10.00;6.65;;;;;;;;;;5028130;28;20268;-79
2023/06/21 03:13:41;;;;;;;12.10;6.70;;;;;;;;;;5029296;28;20029;-79
2023/06/21 03:16:07;;;;;;;12.10;6.40;;;;;;;;;;5028438;28;20037;-77
2023/06/21 03:18:32;;;;;;;10.45;6.82;;;;;;;;;;5027178;28;20274;-78
2023/06/21 03:21:00;;;;;;;8.23;6.25;;;;;;;;;;5028354;28;20386;-78
2023/06/21 03:23:26;;;;;;;8.95;6.65;;;;;;;;;;5028177;28;20117;-78
2023/06/21 03:25:51;;;;;;;8.75;6.07;;;;;;;;;;5028636;28;20030;-79
2023/06/21 03:28:16;;;;;;;9.10;6.27;;;;;;;;;;5028205;28;20018;-79
2023/06/21 03:30:42;;;;;;;11.17;6.67;;;;;;;;;;5027886;28;20247;-78
2023/06/21 03:33:07;;;;;;;8.67;5.53;;;;;;;;;;5027853;28;20327;-77
2023/06/21 03:35:32;;;;;;;10.30;6.40;;;;;;;;;;5026277;28;20260;-78
2023/06/21 03:37:57;;;;;;;7.95;5.90;;;;;;;;;;5028324;28;20267;-78
2023/06/21 03:40:23;;;;;;;11.70;6.13;;;;;;;;;;5010494;28;20085;-79
2023/06/21 03:42:48;;;;;;;15.00;6.57;;;;;;;;;;5028139;28;20026;-79
2023/06/21 03:45:13;;;;;;;9.00;6.03;;;;;;;;;;5023885;28;20030;-78
2023/06/21 03:47:40;;;;;;;9.93;5.73;;;;;;;;;;5027582;28;20279;-79
2023/06/21 03:50:06;;;;;;;12.38;6.15;;;;;;;;;;5011356;28;20278;-76
2023/06/21 03:52:32;;;;;;;11.30;6.28;;;;;;;;;;5029047;28;20037;-76
2023/06/21 03:54:57;;;;;;;10.48;7.57;;;;;;;;;;5028944;28;20034;-79
2023/06/21 03:57:22;;;;;;;9.90;6.53;;;;;;;;;;5026759;28;20083;-78
2023/06/21 03:59:48;;;;;;;13.00;6.47;;;;;;;;;;5008852;28;20576;-78
2023/06/21 04:02:13;;;;;;;11.30;6.23;;;;;;;;;;5009315;28;20290;-78
2023/06/21 04:04:38;;;;;;;11.18;6.03;;;;;;;;;;5008474;28;20256;-79
2023/06/21 04:07:04;;;;;;;12.98;6.88;;;;;;;;;;5023892;28;20544;-76
2023/06/21 04:09:29;;;;;;;11.02;6.47;;;;;;;;;;5022205;28;20052;-77
2023/06/21 04:11:56;;;;;;;14.57;6.87;;;;;;;;;;5022525;28;20030;-77
2023/06/21 04:14:22;;;;;;;12.15;7.25;;;;;;;;;;5005047;28;20357;-79
2023/06/21 04:16:47;;;;;;;12.38;6.90;;;;;;;;;;5021925;28;20559;-78
2023/06/21 04:19:12;;;;;;;12.93;7.10;;;;;;;;;;5008165;28;20065;-79
2023/06/21 04:21:41;;;;;;;11.53;7.57;;;;;;;;;;5009528;28;20295;-78
2023/06/21 04:24:06;;;;;;;12.63;7.32;;;;;;;;;;5025909;28;20262;-78
2023/06/21 04:26:31;;;;;;;14.70;7.73;;;;;;;;;;5027226;28;20034;-79
2023/06/21 04:29:01;;;;;;;11.82;8.02;;;;;;;;;;5026676;28;20286;-77
2023/06/21 04:31:29;;;;;;;12.43;8.43;;;;;;;;;;5024339;28;20034;-78
2023/06/21 04:33:55;;;;;;;15.68;8.70;;;;;;;;;;5007152;28;20022;-77
2023/06/21 04:36:21;;;;;;;13.65;8.00;;;;;;;;;;5007725;28;20028;-78
2023/06/21 04:38:49;;;;;;;9.82;7.75;;;;;;;;;;5023944;28;20084;-78
2023/06/21 04:41:18;;;;;;;15.35;8.27;;;;;;;;;;5023052;28;20515;-77
2023/06/21 04:43:43;;;;;;;10.20;7.55;;;;;;;;;;5005453;28;20022;-78
2023/06/21 04:46:08;;;;;;;14.52;7.88;;;;;;;;;;5005318;28;20439;-78
2023/06/21 04:48:34;;;;;;;10.20;7.45;;;;;;;;;;5020195;28;20380;-79
2023/06/21 04:50:59;;;;;;;12.45;8.77;;;;;;;;;;5025458;28;20026;-78
2023/06/21 04:53:29;;;;;;;13.90;8.30;;;;;;;;;;5005272;28;20064;-79
2023/06/21 04:55:55;;;;;;;12.18;7.32;;;;;;;;;;5024263;28;20291;-78
2023/06/21 04:58:20;;;;;;;11.88;7.13;;;;;;;;;;5024578;28;20037;-76
2023/06/21 05:00:45;;;;;;;12.23;7.00;;;;;;;;;;5007502;28;20117;-78
2023/06/21 05:03:10;;;;;;;15.37;7.63;;;;;;;;;;5004807;28;20255;-78
2023/06/21 05:05:36;;;;;;;8.87;7.37;;;;;;;;;;5023233;28;20270;-79
2023/06/21 05:08:01;;;;;;;11.87;6.63;;;;;;;;;;5023788;28;20287;-77
2023/06/21 05:10:26;;;;;;;11.20;6.47;;;;;;;;;;5003586;28;20263;-78
2023/06/21 05:12:52;;;;;;;11.20;6.50;;;;;;;;;;5021213;28;20056;-77
2023/06/21 05:15:17;;;;;;;8.18;5.90;;;;;;;;;;5020966;28;20037;-77
2023/06/21 05:17:42;;;;;;;7.32;5.70;;;;;;;;;;5020790;28;20030;-78
2023/06/21 05:20:08;;;;;;;10.27;5.65;;;;;;;;;;5021294;28;20108;-78
2023/06/21 05:22:34;;;;;;;6.38;4.97;;;;;;;;;;5002528;28;20026;-78
2023/06/21 05:25:02;;;;;;;8.88;5.25;;;;;;;;;;5021550;28;20030;-78
2023/06/21 05:27:27;;;;;;;8.48;5.20;;;;;;;;;;5020529;28;20037;-78
2023/06/21 05:29:52;;;;;;;8.15;4.65;;;;;;;;;;5020919;28;20025;-78
2023/06/21 05:32:17;;;;;;;16.27;5.10;;;;;;;;;;5021676;28;20017;-78
2023/06/21 05:34:43;;;;;;;7.65;4.25;;;;;;;;;;5003888;28;20251;-78
2023/06/21 05:37:08;;;;;;;5.83;4.20;;;;;;;;;;5003743;28;20032;-77
2023/06/21 05:39:33;;;;;;;6.20;3.93;;;;;;;;;;5020481;28;20259;-78
2023/06/21 05:41:58;;;;;;;8.17;4.07;;;;;;;;;;5019053;28;20266;-77
2023/06/21 05:44:24;;;;;;;8.03;3.87;;;;;;;;;;5002886;28;20350;-77
2023/06/21 05:46:49;;;;;;;6.63;3.45;;;;;;;;;;5020276;28;20743;-78
2023/06/21 05:49:14;;;;;;;6.03;3.57;;;;;;;;;;5020323;28;20030;-78
2023/06/21 05:51:39;;;;;;;10.37;3.97;;;;;;;;;;5003786;28;20271;-78
2023/06/21 05:54:04;;;;;;;8.18;3.63;;;;;;;;;;4999975;28;20266;-78
2023/06/21 05:56:31;;;;;;;6.03;3.73;;;;;;;;;;5017357;28;20037;-78
2023/06/21 05:58:57;;;;;;;12.93;3.80;;;;;;;;;;5018759;28;20623;-78
2023/06/21 06:01:22;;;;;;;9.50;3.83;;;;;;;;;;5018916;28;20033;-78
2023/06/21 06:03:47;;;;;;;5.73;3.53;;;;;;;;;;5020045;28;20061;-78
2023/06/21 06:06:13;;;;;;;7.27;3.87;;;;;;;;;;5021652;28;20267;-78
2023/06/21 06:08:39;;;;;;;9.13;4.32;;;;;;;;;;5020712;28;20287;-78
2023/06/21 06:11:04;;;;;;;5.97;4.13;;;;;;;;;;5017301;28;20179;-78
2023/06/21 06:13:29;;;;;;;10.47;3.87;;;;;;;;;;5017923;28;20270;-76
2023/06/21 06:15:54;;;;;;;10.05;4.13;;;;;;;;;;5019043;28;20029;-78
2023/06/21 06:18:19;;;;;;;7.27;4.10;;;;;;;;;;5019107;28;20078;-79
2023/06/21 06:20:45;;;;;;;5.90;4.00;;;;;;;;;;5023139;28;20259;-78
2023/06/21 06:23:11;;;;;;;7.03;3.80;;;;;;;;;;5018763;28;20100;-78
2023/06/21 06:25:36;;;;;;;8.10;3.83;;;;;;;;;;5018644;28;20025;-78
2023/06/21 06:28:01;;;;;;;5.18;3.60;;;;;;;;;;5016543;28;20122;-79
2023/06/21 06:30:27;;;;;;;8.97;3.77;;;;;;;;;;5003637;28;20033;-78
2023/06/21 06:32:52;;;;;;;7.87;3.83;;;;;;;;;;4998832;28;20033;-77
2023/06/21 06:35:17;;;;;;;14.20;4.03;;;;;;;;;;5013250;28;20026;-75
2023/06/21 06:37:42;;;;;;;6.90;4.00;;;;;;;;;;5011037;28;20761;-77
2023/06/21 06:40:08;;;;;;;7.13;3.70;;;;;;;;;;5013726;28;20488;-76
2023/06/21 06:42:33;;;;;;;6.60;4.32;;;;;;;;;;5014389;28;20457;-77
2023/06/21 06:44:58;;;;;;;6.57;3.67;;;;;;;;;;5016399;28;20504;-76
2023/06/21 06:47:23;;;;;;;8.57;4.20;;;;;;;;;;5019807;28;20106;-75
2023/06/21 06:49:48;;;;;;;7.10;3.77;;;;;;;;;;5020463;28;20053;-75
2023/06/21 06:52:14;;;;;;;10.73;4.03;;;;;;;;;;5019837;28;20045;-76
2023/06/21 06:54:40;;;;;;;5.47;3.83;;;;;;;;;;5002635;28;20030;-76
2023/06/21 06:59:43;;;;;;;7.70;4.00;;;;;;;;;;5115485;22;20057;-77
2023/06/21 07:02:08;;;;;;;7.55;3.90;;;;;;;;;;5043377;28;20029;-78
2023/06/21 07:04:34;;;;;;;6.77;4.03;;;;;;;;;;5047395;28;20026;-78
2023/06/21 07:07:01;;;;;;;10.65;3.72;;;;;;;;;;5047328;28;20255;-77
2023/06/21 07:09:29;;;;;;;6.85;3.95;;;;;;;;;;5030132;28;20030;-77
2023/06/21 07:11:59;;;;;;;8.43;3.88;;;;;;;;;;5047271;28;20022;-78
2023/06/21 07:14:50;;;;;;;6.25;3.78;;;;;;;;;;5044941;28;20029;-77
2023/06/21 07:17:23;;;;;;;5.93;3.88;;;;;;;;;;5004402;28;20064;-77
2023/06/21 07:20:26;;;;;;;8.57;4.25;;;;;;;;;;5045602;28;20021;-78
2023/06/21 07:22:52;;;;;;;6.05;3.53;;;;;;;;;;5020577;28;20404;-79
2023/06/21 07:26:24;;;;;;;8.60;4.10;;;;;;;;;;5046177;28;20025;-79
2023/06/21 07:28:49;;;;;;;5.38;3.90;;;;;;;;;;5042759;28;20025;-79
2023/06/21 07:31:18;;;;;;;6.07;4.13;;;;;;;;;;5025798;28;20398;-77
2023/06/21 07:33:43;;;;;;;6.47;4.47;;;;;;;;;;5042044;28;20481;-77
2023/06/21 07:36:08;;;;;;;6.77;4.37;;;;;;;;;;5043280;28;20040;-79
2023/06/21 07:38:34;;;;;;;7.50;3.85;;;;;;;;;;5042249;28;20267;-79
2023/06/21 07:41:04;;;;;;;8.63;3.92;;;;;;;;;;5044209;28;20503;-80
2023/06/21 07:43:29;;;;;;;9.02;4.20;;;;;;;;;;5043430;28;20033;-78
2023/06/21 07:45:58;;;;;;;6.67;4.13;;;;;;;;;;5026004;28;20021;-78
2023/06/21 07:48:23;;;;;;;8.75;4.82;;;;;;;;;;5044357;28;20350;-80
2023/06/21 07:50:49;;;;;;;8.20;4.35;;;;;;;;;;5044007;28;20052;-79
2023/06/21 07:53:14;;;;;;;6.57;3.97;;;;;;;;;;5042825;28;20455;-78
2023/06/21 07:55:39;;;;;;;6.00;3.92;;;;;;;;;;5044629;28;20025;-78
2023/06/21 07:58:06;;;;;;;7.10;3.87;;;;;;;;;;5044118;28;20045;-78
2023/06/21 08:00:31;;;;;;;7.45;4.05;;;;;;;;;;5043066;28;20270;-81
2023/06/21 08:02:57;;;;;;;8.57;3.60;;;;;;;;;;5046365;28;20021;-77
2023/06/21 08:05:22;;;;;;;8.60;3.72;;;;;;;;;;5045273;28;20024;-79
2023/06/21 08:07:47;;;;;;;9.03;3.97;;;;;;;;;;5044634;28;20484;-79
2023/06/21 08:10:13;;;;;;;10.57;4.17;;;;;;;;;;5026049;28;20637;-79
2023/06/21 08:12:38;;;;;;;7.80;3.88;;;;;;;;;;5043918;28;20427;-80
2023/06/21 08:15:04;;;;;;;7.72;4.40;;;;;;;;;;5045690;28;20044;-79
2023/06/21 08:17:29;;;;;;;4.75;3.60;;;;;;;;;;5028707;28;20017;-80
2023/06/21 08:19:54;;;;;;;6.25;4.28;;;;;;;;;;5026538;28;20052;-79
2023/06/21 08:22:20;;;;;;;10.17;4.10;;;;;;;;;;5027221;28;20021;-79
2023/06/21 08:24:46;;;;;;;8.15;4.07;;;;;;;;;;5044362;28;20083;-79
2023/06/21 08:27:11;;;;;;;9.30;4.00;;;;;;;;;;5043485;28;20025;-79
2023/06/21 08:29:37;;;;;;;7.47;3.67;;;;;;;;;;5025103;28;20033;-78
2023/06/21 08:32:04;;;;;;;7.43;3.30;;;;;;;;;;5025109;28;20108;-78
2023/06/21 08:34:29;;;;;;;8.90;3.95;;;;;;;;;;5025363;28;20049;-80
2023/06/21 08:36:55;;;;;;;8.00;4.05;;;;;;;;;;5043234;28;20472;-79
2023/06/21 08:39:20;;;;;;;7.23;4.00;;;;;;;;;;5044269;28;20394;-79
2023/06/21 08:41:46;;;;;;;7.67;4.03;;;;;;;;;;5045372;28;20263;-79
2023/06/21 08:44:11;;;;;;;8.30;4.18;;;;;;;;;;5043899;28;20285;-77
2023/06/21 08:46:37;;;;;;;7.82;4.22;;;;;;;;;;5043475;28;20021;-78
2023/06/21 08:49:05;;;;;;;7.57;4.55;;;;;;;;;;5043292;28;20025;-79
2023/06/21 08:51:35;;;;;;;6.70;4.03;;;;;;;;;;5042689;28;20104;-80
2023/06/21 08:54:05;;;;;;;6.93;4.15;;;;;;;;;;5043145;28;20076;-79
2023/06/21 08:56:37;;;;;;;9.13;4.30;;;;;;;;;;5025813;28;20141;-79
2023/06/21 08:59:08;;;;;;;7.70;4.00;;;;;;;;;;5044048;28;20029;-78
2023/06/21 09:01:42;;;;;;;12.05;3.92;;;;;;;;;;5044219;28;20022;-78
2023/06/21 09:04:11;;;;;;;12.55;4.68;;;;;;;;;;5044194;28;20026;-79
2023/06/21 09:06:36;;;;;;;9.05;4.20;;;;;;;;;;5024786;28;20032;-78
2023/06/21 09:09:02;;;;;;;8.23;4.40;;;;;;;;;;5043074;28;20022;-78
2023/06/21 09:11:27;;;;;;;9.63;4.50;;;;;;;;;;5042964;28;20108;-78
2023/06/21 09:13:53;;;;;;;9.32;4.40;;;;;;;;;;5025042;28;20250;-79
2023/06/21 09:16:19;;;;;;;7.30;3.70;;;;;;;;;;5043240;28;20103;-77
2023/06/21 09:18:45;;;;;;;9.02;4.22;;;;;;;;;;5024084;28;20400;-78
2023/06/21 09:21:11;;;;;;;7.25;4.22;;;;;;;;;;5040973;28;20026;-78
2023/06/21 09:23:39;;;;;;;7.82;4.40;;;;;;;;;;5042167;28;20044;-78
2023/06/21 09:26:05;;;;;;;12.00;4.60;;;;;;;;;;5041863;28;20064;-78
2023/06/21 09:28:31;;;;;;;7.75;3.58;;;;;;;;;;5023254;28;20029;-79
2023/06/21 09:30:56;;;;;;;8.50;4.53;;;;;;;;;;5023034;28;20030;-78
2023/06/21 09:33:23;;;;;;;9.93;4.38;;;;;;;;;;5040890;28;20025;-78
2023/06/21 09:35:49;;;;;;;8.00;4.72;;;;;;;;;;5041505;28;20061;-77
2023/06/21 09:38:21;;;;;;;7.93;4.38;;;;;;;;;;5041568;28;20022;-79
2023/06/21 09:40:47;;;;;;;6.10;4.23;;;;;;;;;;5040709;28;20079;-79
2023/06/21 09:43:12;;;;;;;9.30;4.60;;;;;;;;;;5041621;28;20029;-78
2023/06/21 09:48:54;;;;;;;7.57;4.75;;;;;;;;;;2405083;26;20297;-78
2023/06/21 09:59:05;;;;;;;7.28;4.20;;;;;;;;;;4892886;28;20032;-78
2023/06/21 10:01:47;;;;;;;7.68;4.70;;;;;;;;;;4961545;28;20102;-78
2023/06/21 10:04:57;;;;;;;9.85;4.65;;;;;;;;;;4962791;28;20178;-79
2023/06/21 10:07:51;;;;;;;7.95;4.90;;;;;;;;;;4961826;28;20054;-79
2023/06/21 10:10:18;;;;;;;;;;;;;;;;;;4962244;28;20550;-79
2023/06/21 10:12:59;;;;;;;8.43;4.13;;;;;;;;;;4961896;28;20013;-77
2023/06/21 10:15:35;;;;;;;5.78;4.43;;;;;;;;;;4961693;28;20019;-80
2023/06/21 10:18:19;;;;;;;7.50;4.53;;;;;;;;;;4965946;28;20031;-80
2023/06/21 10:20:58;;;;;;;7.10;4.72;;;;;;;;;;4965032;28;20117;-80
2023/06/21 10:23:37;;;;;;;7.50;4.50;;;;;;;;;;4965975;28;20086;-78
2023/06/21 10:26:05;;;;;;;6.65;4.60;;;;;;;;;;4966089;28;20055;-80
2023/06/21 10:28:43;;;;;;;8.55;4.80;;;;;;;;;;4966362;28;20031;-79
2023/06/21 10:31:38;;;;;;;6.53;4.65;;;;;;;;;;4964962;28;20058;-79
2023/06/21 10:34:21;;;;;;;6.78;4.47;;;;;;;;;;4961523;29;20031;-79
2023/06/21 10:36:51;;;;;;;9.80;5.15;;;;;;;;;;4966160;28;20023;-79
2023/06/21 10:39:22;;;;;;;9.13;4.60;;;;;;;;;;4964790;28;20035;-79
2023/06/21 10:42:01;;;;;;;7.80;4.85;;;;;;;;;;4965570;29;20046;-79
2023/06/21 10:44:35;;;;;;;8.13;4.85;;;;;;;;;;4965586;28;20030;-80
2023/06/21 10:47:03;;;;;;;;;;;;;;;;;;4964240;28;20097;-79
2023/06/21 10:49:31;;;;;;;9.40;4.82;;;;;;;;;;4965124;28;19942;-79
2023/06/21 10:51:57;;;;;;;10.35;4.38;;;;;;;;;;4965694;28;20034;-79
2023/06/21 10:54:24;;;;;;;11.35;4.53;;;;;;;;;;4965409;28;20023;-79
2023/06/21 10:56:50;;;;;;;9.60;5.05;;;;;;;;;;4965505;28;20027;-79
2023/06/21 10:59:17;;;;;;;9.82;5.10;;;;;;;;;;4965223;28;20054;-79
2023/06/21 11:01:42;;;;;;;9.32;4.97;;;;;;;;;;4965246;28;20023;-79
2023/06/21 11:04:30;;;;;;;10.98;5.32;;;;;;;;;;4964907;28;20028;-79
2023/06/21 11:07:00;;;;;;;8.80;4.60;;;;;;;;;;4964735;28;20031;-79
2023/06/21 11:09:26;;;;;;;6.72;4.85;;;;;;;;;;4963096;28;20028;-77
2023/06/21 11:11:54;;;;;;;7.63;4.95;;;;;;;;;;4962830;28;20113;-79
2023/06/21 11:14:30;;;;;;;11.27;4.65;;;;;;;;;;4964025;28;20031;-77
2023/06/21 11:17:14;;;;;;;6.88;4.20;;;;;;;;;;4964498;28;20055;-79
2023/06/21 11:19:43;;;;;;;7.50;4.95;;;;;;;;;;4965391;28;20442;-80
2023/06/21 11:22:15;;;;;;;8.60;4.88;;;;;;;;;;4964118;28;20031;-79
2023/06/21 11:24:49;;;;;;;7.40;5.10;;;;;;;;;;4964467;28;20101;-80
2023/06/21 11:27:14;;;;;;;7.47;4.40;;;;;;;;;;4962959;28;20475;-79
2023/06/21 11:29:40;;;;;;;10.50;4.67;;;;;;;;;;4962245;28;20039;-78
2023/06/21 11:32:06;;;;;;;7.32;4.75;;;;;;;;;;4963402;28;20269;-78
2023/06/21 11:34:32;;;;;;;6.47;4.65;;;;;;;;;;4964429;28;20033;-80
2023/06/21 11:37:31;;;;;;;6.32;4.60;;;;;;;;;;4963649;28;20395;-80
2023/06/21 11:40:01;;;;;;;6.93;4.55;;;;;;;;;;4961103;29;20110;-78
2023/06/21 11:42:27;;;;;;;6.30;4.22;;;;;;;;;;4961864;29;20027;-77
2023/06/21 11:44:53;;;;;;;9.10;4.93;;;;;;;;;;4961913;28;20494;-77
2023/06/21 11:47:19;;;;;;;7.78;4.47;;;;;;;;;;4960885;28;20038;-79
2023/06/21 11:49:47;;;;;;;8.65;4.78;;;;;;;;;;4962568;28;20547;-77
2023/06/21 11:52:13;;;;;;;8.93;4.97;;;;;;;;;;4961665;29;20057;-78
2023/06/21 11:54:38;;;;;;;8.88;4.90;;;;;;;;;;4963515;29;20019;-80
2023/06/21 11:57:07;;;;;;;8.23;4.87;;;;;;;;;;4963906;28;20091;-80
2023/06/21 11:59:34;;;;;;;7.40;5.05;;;;;;;;;;4961851;29;20268;-79
2023/06/21 12:02:12;;;;;;;7.03;4.50;;;;;;;;;;4945933;29;20047;-80
2023/06/21 12:04:39;;;;;;;8.98;4.78;;;;;;;;;;4963016;28;20386;-80
2023/06/21 12:07:04;;;;;;;6.38;4.55;;;;;;;;;;4963385;28;20085;-80
2023/06/21 12:09:30;;;;;;;6.50;4.50;;;;;;;;;;4962185;29;20459;-79
2023/06/21 12:11:57;;;;;;;9.65;5.05;;;;;;;;;;4962302;28;20046;-80
2023/06/21 12:14:22;;;;;;;7.63;5.05;;;;;;;;;;4963458;28;20114;-79
2023/06/21 12:16:49;;;;;;;8.85;4.68;;;;;;;;;;4962051;28;20046;-79
2023/06/21 12:19:15;;;;;;;7.25;5.00;;;;;;;;;;4966007;28;20019;-78
2023/06/21 12:21:40;;;;;;;8.80;5.67;;;;;;;;;;4964351;29;20144;-81
2023/06/21 12:24:05;;;;;;;9.17;4.77;;;;;;;;;;4965678;29;20285;-80
2023/06/21 12:26:31;;;;;;;8.82;4.85;;;;;;;;;;4966344;28;20772;-78
2023/06/21 12:28:56;;;;;;;4.90;3.90;;;;;;;;;;4965618;28;20023;-77
2023/06/21 12:31:21;;;;;;;7.97;4.35;;;;;;;;;;4960412;29;20050;-79
2023/06/21 12:33:58;;;;;;;5.73;4.30;;;;;;;;;;4959435;28;20094;-78
2023/06/21 12:36:26;;;;;;;10.43;5.05;;;;;;;;;;4959963;28;20257;-78
2023/06/21 12:38:58;;;;;;;9.93;4.85;;;;;;;;;;4960291;28;20030;-77
2023/06/21 12:41:25;;;;;;;7.85;4.95;;;;;;;;;;4957450;28;20047;-78
2023/06/21 12:43:53;;;;;;;6.38;4.47;;;;;;;;;;4959937;28;20042;-78
2023/06/21 12:46:19;;;;;;;5.53;4.07;;;;;;;;;;4961581;28;20047;-77
2023/06/21 12:48:56;;;;;;;8.48;4.32;;;;;;;;;;4962048;28;20430;-78
2023/06/21 12:51:27;;;;;;;5.95;3.47;;;;;;;;;;4962821;28;20042;-79
2023/06/21 12:54:00;;;;;;;6.30;4.50;;;;;;;;;;4959578;28;20027;-78
2023/06/21 12:56:33;;;;;;;7.65;4.13;;;;;;;;;;4960159;28;20095;-78
2023/06/21 12:58:59;;;;;;;7.40;4.32;;;;;;;;;;4958609;29;20488;-77
2023/06/21 13:01:24;;;;;;;5.75;4.18;;;;;;;;;;4960824;28;20030;-78
2023/06/21 13:03:52;;;;;;;8.40;4.20;;;;;;;;;;4960290;28;20482;-78
2023/06/21 13:06:17;;;;;;;5.00;3.97;;;;;;;;;;4959341;28;20035;-77
2023/06/21 13:08:42;;;;;;;6.57;4.43;;;;;;;;;;4957493;28;20033;-78
2023/06/21 13:11:08;;;;;;;5.63;3.90;;;;;;;;;;4958255;29;20059;-78
2023/06/21 13:13:34;;;;;;;7.97;4.20;;;;;;;;;;4957513;28;20027;-78
2023/06/21 13:15:59;;;;;;;8.68;4.50;;;;;;;;;;4957971;28;20550;-78
2023/06/21 13:18:27;;;;;;;6.47;3.83;;;;;;;;;;4958178;28;20030;-78
2023/06/21 13:20:55;;;;;;;6.95;4.20;;;;;;;;;;4958274;28;20386;-77
2023/06/21 13:23:20;;;;;;;4.80;3.90;;;;;;;;;;4957785;28;20415;-76
2023/06/21 13:29:40;;;;;;;6.20;3.83;;;;;;;;;;968926;26;20578;-77
2023/06/21 13:31:47;;;;;;;6.70;3.60;;;;;;;;;;5017880;28;20037;-77
2023/06/21 13:34:17;;;;;;;5.20;3.45;;;;;;;;;;5034033;28;20439;-76
2023/06/21 13:36:45;;;;;;;6.75;3.63;;;;;;;;;;5034891;28;20053;-79
2023/06/21 13:39:10;;;;;;;5.65;3.72;;;;;;;;;;5037461;28;20044;-80
2023/06/21 13:45:11;;;;;;;8.45;3.60;;;;;;;;;;5031534;28;20255;-81
2023/06/21 13:58:01;;;;;;;5.03;3.05;;;;;;;;;;4937024;29;20079;-79
2023/06/21 14:04:48;;;;;;;4.68;3.20;;;;;;;;;;4917495;29;20036;-79
2023/06/21 14:07:14;;;;;;;5.05;3.80;;;;;;;;;;4995879;22;20058;-78
2023/06/21 14:09:44;;;;;;;4.75;2.83;;;;;;;;;;5015543;28;20030;-79
2023/06/21 14:12:20;;;;;;;;;;;;;;;;;;;;;
2023/06/21 14:14:45;;;;;;;4.22;3.28;;;;;;;;;;5009913;28;20022;-80
2023/06/21 14:17:14;;;;;;;5.23;3.13;;;;;;;;;;5009146;28;20056;-82
2023/06/21 14:20:08;;;;;;;5.05;3.55;;;;;;;;;;5000338;28;20267;-78
2023/06/21 14:27:17;;;;;;;8.73;3.70;;;;;;;;;;4957853;28;20110;-78
2023/06/21 14:30:20;;;;;;;5.10;3.47;;;;;;;;;;4983684;28;20050;-78
2023/06/21 14:42:15;;;;;;;4.35;3.05;;;;;;;;;;4989429;28;20061;-79
2023/06/21 14:59:08;;;;;;;6.57;3.30;;;;;;;;;;4899586;29;20036;-80
2023/06/21 15:01:33;;;;;;;6.53;2.85;;;;;;;;;;4859299;29;20715;-79
2023/06/21 15:07:18;;;;;;;7.28;3.05;;;;;;;;;;4911575;29;20087;-79
2023/06/21 15:09:46;;;;;;;4.20;3.10;;;;;;;;;;4931432;29;20036;-78
2023/06/21 15:12:11;;;;;;;5.30;3.13;;;;;;;;;;4977688;28;20091;-79
2023/06/21 15:18:26;;;;;;;6.63;3.17;;;;;;;;;;4978413;28;20101;-79
2023/06/21 15:20:51;;;;;;;6.05;3.70;;;;;;;;;;5010934;28;20042;-79
2023/06/21 15:23:16;;;;;;;4.65;3.45;;;;;;;;;;5010154;28;20444;-84
2023/06/21 15:42:40;;;;;;;4.03;2.85;;;;;;;;;;4902578;29;20076;-78
2023/06/21 15:45:09;;;;;;;3.58;2.63;;;;;;;;;;4921209;28;20105;-80
2023/06/21 15:47:34;;;;;;;4.75;2.95;;;;;;;;;;4979748;28;20074;-80
2023/06/21 15:53:46;;;;;;;4.28;2.90;;;;;;;;;;4925752;28;20043;-79
2023/06/21 15:56:11;;;;;;;6.82;3.30;;;;;;;;;;5051568;22;20144;-79
2023/06/21 15:58:37;;;;;;;5.33;2.90;;;;;;;;;;4996233;28;20030;-78
2023/06/21 16:01:02;;;;;;;8.10;3.83;;;;;;;;;;4996166;28;20092;-79
2023/06/21 16:03:27;;;;;;;3.83;3.17;;;;;;;;;;4998409;28;20022;-79
2023/06/21 16:05:53;;;;;;;4.27;3.30;;;;;;;;;;4992407;28;20121;-80
2023/06/21 16:08:19;;;;;;;4.80;3.45;;;;;;;;;;4978220;28;20303;-79
2023/06/21 16:10:45;;;;;;;4.35;3.20;;;;;;;;;;5002766;28;20406;-79
2023/06/21 16:13:11;;;;;;;3.90;3.42;;;;;;;;;;4983849;28;20041;-78
2023/06/21 16:15:36;;;;;;;4.70;3.60;;;;;;;;;;4998040;28;20030;-80